| time (UTC) | temp C | wind direction | speed KPH | gust KPH | rain 1hr cm | rain 24hr cm | rain mn cm | humidity % | barometer mb |
| 20260508184640 | 20 | 306 | 3.2 | 12.9 | 0.00 | 0.84 | 0.00 | 34 | 1017.0 |
| 20260508183037 | 20 | 225 | 4.8 | 9.7 | 0.00 | 0.84 | 0.00 | 37 | 1017.0 |
| 20260508181546 | 20 | 259 | 4.8 | 11.3 | 0.00 | 0.84 | 0.00 | 34 | 1017.3 |
| 20260508180037 | 19 | 227 | 3.2 | 11.3 | 0.00 | 0.84 | 0.00 | 35 | 1017.5 |
| 20260508174633 | 19 | 228 | 4.8 | 24.1 | 0.00 | 0.84 | 0.00 | 35 | 1017.6 |
| 20260508173033 | 19 | 5 | 1.6 | 12.9 | 0.00 | 0.84 | 0.00 | 34 | 1017.9 |
| 20260508171531 | 19 | 146 | 1.6 | 14.5 | 0.00 | 0.84 | 0.00 | 33 | 1018.0 |
| 20260508170031 | 18 | 261 | 0.0 | 17.7 | 0.00 | 0.84 | 0.00 | 32 | 1018.3 |
| 20260508164630 | 18 | 240 | 1.6 | 12.9 | 0.00 | 0.84 | 0.00 | 32 | 1018.8 |
| 20260508163030 | 18 | 309 | 3.2 | 11.3 | 0.00 | 0.84 | 0.00 | 34 | 1018.8 |
| 20260508161528 | 18 | 257 | 1.6 | 8.0 | 0.00 | 0.84 | 0.00 | 36 | 1018.9 |
| 20260508160026 | 18 | 207 | 1.6 | 8.0 | 0.00 | 0.84 | 0.00 | 35 | 1019.1 |
| 20260508154626 | 17 | 165 | 1.6 | 8.0 | 0.00 | 0.84 | 0.00 | 35 | 1019.3 |
| 20260508153025 | 18 | 86 | 0.0 | 9.7 | 0.00 | 0.84 | 0.00 | 36 | 1019.5 |
| 20260508151523 | 17 | 294 | 0.0 | 8.0 | 0.00 | 0.84 | 0.00 | 36 | 1019.4 |
| 20260508150023 | 17 | 294 | 6.4 | 9.7 | 0.00 | 0.94 | 0.00 | 36 | 1019.2 |
| 20260508144619 | 16 | 85 | 3.2 | 9.7 | 0.00 | 0.94 | 0.00 | 40 | 1019.3 |
| 20260508143017 | 16 | 51 | 4.8 | 9.7 | 0.00 | 0.94 | 0.00 | 37 | 1019.4 |
| 20260508141523 | 16 | 5 | 1.6 | 8.0 | 0.00 | 0.94 | 0.00 | 40 | 1019.5 |
| 20260508140015 | 16 | 76 | 1.6 | 8.0 | 0.00 | 0.97 | 0.00 | 41 | 1019.6 |
| 20260508134625 | 16 | 71 | 3.2 | 8.0 | 0.00 | 0.97 | 0.00 | 43 | 1019.5 |
| 20260508133011 | 15 | 78 | 0.0 | 6.4 | 0.00 | 0.97 | 0.00 | 49 | 1019.4 |
| 20260508131507 | 15 | 40 | 0.0 | 8.0 | 0.00 | 0.97 | 0.00 | 53 | 1019.3 |
| 20260508130106 | 14 | 5 | 3.2 | 6.4 | 0.00 | 0.97 | 0.00 | 56 | 1019.2 |
| 20260508124606 | 13 | 19 | 0.0 | 6.4 | 0.00 | 0.97 | 0.00 | 61 | 1019.1 |
| 20260508123003 | 11 | 63 | 0.0 | 4.8 | 0.00 | 0.97 | 0.00 | 74 | 1018.9 |
| 20260508121503 | 10 | 60 | 0.0 | 1.6 | 0.00 | 0.97 | 0.00 | 78 | 1018.8 |
| 20260508120100 | 10 | 60 | 0.0 | 0.0 | 0.00 | 1.09 | 0.00 | 77 | 1018.6 |
| 20260508114603 | 9 | 60 | 0.0 | 0.0 | 0.00 | 1.09 | 0.00 | 77 | 1018.5 |
| 20260508113057 | 8 | 60 | 0.0 | 0.0 | 0.00 | 1.09 | 0.00 | 77 | 1018.0 |
| 20260508111556 | 8 | 60 | 0.0 | 0.0 | 0.00 | 1.09 | 0.00 | 77 | 1017.9 |
| 20260508110057 | 8 | 60 | 0.0 | 0.0 | 0.00 | 1.12 | 0.00 | 76 | 1017.6 |
| 20260508104552 | 8 | 60 | 0.0 | 0.0 | 0.00 | 1.12 | 0.00 | 76 | 1017.5 |
| 20260508103058 | 8 | 60 | 0.0 | 1.6 | 0.00 | 1.12 | 0.00 | 76 | 1017.3 |
| 20260508101549 | 8 | 60 | 0.0 | 1.6 | 0.00 | 1.12 | 0.00 | 76 | 1016.9 |
| 20260508100104 | 8 | 60 | 0.0 | 0.0 | 0.00 | 1.12 | 0.00 | 76 | 1016.6 |
| 20260508094556 | 8 | 60 | 0.0 | 0.0 | 0.00 | 1.12 | 0.00 | 75 | 1016.5 |
| 20260508093046 | 8 | 60 | 0.0 | 0.0 | 0.00 | 1.12 | 0.00 | 75 | 1016.5 |
| 20260508091547 | 9 | 60 | 0.0 | 0.0 | 0.00 | 1.12 | 0.00 | 75 | 1016.5 |
| 20260508090106 | 9 | 60 | 0.0 | 0.0 | 0.00 | 1.17 | 0.00 | 75 | 1016.4 |
| 20260508084545 | 9 | 60 | 0.0 | 0.0 | 0.00 | 1.17 | 0.00 | 74 | 1016.2 |
| 20260508083040 | 9 | 60 | 0.0 | 0.0 | 0.00 | 1.17 | 0.00 | 74 | 1016.2 |
| 20260508081553 | 9 | 60 | 0.0 | 3.2 | 0.00 | 1.17 | 0.00 | 73 | 1015.8 |
| 20260508080039 | 9 | 60 | 0.0 | 1.6 | 0.00 | 1.35 | 0.00 | 73 | 1015.8 |
| 20260508074535 | 10 | 60 | 0.0 | 1.6 | 0.00 | 1.35 | 0.00 | 72 | 1015.7 |
| 20260508073037 | 10 | 60 | 0.0 | 3.2 | 0.00 | 1.35 | 0.00 | 72 | 1015.6 |
| 20260508071531 | 10 | 60 | 0.0 | 0.0 | 0.00 | 1.35 | 0.00 | 71 | 1015.6 |
| 20260508070031 | 10 | 60 | 0.0 | 0.0 | 0.00 | 1.65 | 0.00 | 71 | 1015.4 |
| 20260508064534 | 10 | 60 | 0.0 | 0.0 | 0.00 | 1.65 | 0.00 | 71 | 1015.5 |
| 20260508063035 | 10 | 60 | 0.0 | 0.0 | 0.00 | 1.65 | 0.00 | 71 | 1015.3 |
| 20260508061535 | 10 | 60 | 0.0 | 0.0 | 0.00 | 1.65 | 0.00 | 71 | 1015.4 |
| 20260508060029 | 10 | 60 | 0.0 | 1.6 | 0.00 | 2.11 | 0.00 | 71 | 1015.4 |
| 20260508054526 | 11 | 60 | 0.0 | 1.6 | 0.00 | 2.11 | 0.00 | 71 | 1015.4 |
| 20260508053031 | 11 | 60 | 0.0 | 3.2 | 0.00 | 2.11 | 0.00 | 70 | 1015.5 |
| 20260508051523 | 11 | 60 | 0.0 | 0.0 | 0.00 | 2.11 | 0.00 | 69 | 1015.2 |
| 20260508050021 | 11 | 60 | 0.0 | 0.0 | 0.00 | 2.13 | 0.00 | 69 | 1015.2 |
| 20260508044520 | 11 | 60 | 0.0 | 1.6 | 0.00 | 2.13 | 0.00 | 70 | 1015.1 |
| 20260508043021 | 12 | 60 | 0.0 | 0.0 | 0.00 | 2.13 | 0.00 | 71 | 1015.0 |
| 20260508041521 | 12 | 60 | 0.0 | 0.0 | 0.00 | 2.13 | 0.00 | 71 | 1014.9 |
| 20260508040015 | 13 | 60 | 0.0 | 1.6 | 0.00 | 2.18 | 0.00 | 71 | 1014.9 |
| 20260508034515 | 13 | 60 | 0.0 | 1.6 | 0.00 | 2.18 | 0.00 | 70 | 1014.8 |
| 20260508033007 | 13 | 60 | 0.0 | 1.6 | 0.00 | 2.18 | 0.00 | 70 | 1014.8 |
| 20260508031505 | 13 | 60 | 0.0 | 1.6 | 0.00 | 2.18 | 0.00 | 69 | 1014.6 |
| 20260508030002 | 14 | 59 | 0.0 | 1.6 | 0.00 | 2.74 | 0.00 | 68 | 1014.6 |
| 20260508024620 | 15 | 59 | 0.0 | 1.6 | 0.00 | 2.74 | 0.00 | 65 | 1014.4 |
| 20260508023058 | 15 | 59 | 1.6 | 6.4 | 0.00 | 2.74 | 0.00 | 65 | 1014.4 |
| 20260508021605 | 15 | 89 | 3.2 | 9.7 | 0.00 | 2.74 | 0.00 | 68 | 1014.1 |
| 20260508020057 | 15 | 64 | 0.0 | 6.4 | 0.00 | 3.53 | 2.74 | 69 | 1013.9 |
| 20260508014555 | 15 | 89 | 3.2 | 6.4 | 0.00 | 3.53 | 2.74 | 70 | 1013.6 |
| 20260508013056 | 15 | 92 | 1.6 | 6.4 | 0.00 | 3.53 | 2.74 | 70 | 1013.2 |
| 20260508011605 | 15 | 64 | 1.6 | 6.4 | 0.00 | 3.53 | 2.74 | 70 | 1013.0 |
| 20260508010056 | 15 | 77 | 1.6 | 6.4 | 0.00 | 4.22 | 2.74 | 71 | 1012.8 |
| 20260508004600 | 15 | 70 | 3.2 | 8.0 | 0.05 | 4.22 | 2.74 | 71 | 1012.5 |
| 20260508003050 | 15 | 34 | 0.0 | 4.8 | 0.13 | 4.22 | 2.74 | 70 | 1012.3 |
| 20260508001550 | 15 | 15 | 0.0 | 8.0 | 0.25 | 4.22 | 2.74 | 70 | 1011.8 |
| 20260508000048 | 16 | 5 | 3.2 | 14.5 | 0.41 | 4.37 | 2.74 | 69 | 1011.4 |
| 20260507234547 | 16 | 28 | 3.2 | 12.9 | 0.58 | 4.34 | 2.72 | 70 | 1011.0 |
| 20260507233045 | 16 | 5 | 6.4 | 22.5 | 0.64 | 4.27 | 2.64 | 69 | 1010.8 |
| 20260507231544 | 16 | 93 | 3.2 | 19.3 | 0.58 | 4.14 | 2.51 | 70 | 1010.8 |
| 20260507230052 | 17 | 35 | 6.4 | 17.7 | 0.43 | 3.99 | 2.36 | 69 | 1010.2 |
| 20260507224539 | 17 | 40 | 6.4 | 17.7 | 0.28 | 3.84 | 2.21 | 70 | 1009.5 |
| 20260507223039 | 18 | 38 | 14.5 | 29.0 | 0.10 | 3.66 | 2.03 | 68 | 1009.1 |
| 20260507221542 | 23 | 283 | 0.0 | 6.4 | 0.00 | 3.56 | 1.93 | 58 | 1008.0 |
| 20260507220039 | 23 | 304 | 4.8 | 16.1 | 0.00 | 3.56 | 1.93 | 54 | 1008.4 |
| 20260507214538 | 24 | 271 | 6.4 | 14.5 | 0.00 | 3.56 | 1.93 | 53 | 1008.3 |
| 20260507213039 | 24 | 291 | 4.8 | 17.7 | 0.03 | 3.56 | 1.93 | 55 | 1008.0 |
| 20260507211541 | 23 | 263 | 4.8 | 19.3 | 0.03 | 3.56 | 1.93 | 55 | 1007.9 |
| 20260507210040 | 23 | 236 | 4.8 | 14.5 | 0.03 | 3.56 | 1.93 | 58 | 1007.9 |
| 20260507204537 | 22 | 261 | 8.0 | 17.7 | 0.03 | 3.56 | 1.93 | 61 | 1008.1 |
| 20260507203104 | 22 | 269 | 4.8 | 16.1 | 0.03 | 3.56 | 1.93 | 59 | 1008.0 |
| 20260507201534 | 23 | 236 | 4.8 | 14.5 | 0.00 | 3.53 | 1.91 | 53 | 1007.5 |
| 20260507200034 | 24 | 164 | 6.4 | 14.5 | 0.00 | 3.53 | 1.91 | 52 | 1008.0 |
| 20260507194531 | 23 | 250 | 3.2 | 16.1 | 0.00 | 3.53 | 1.91 | 55 | 1008.1 |
| 20260507193028 | 24 | 223 | 8.0 | 17.7 | 0.00 | 3.53 | 1.91 | 55 | 1008.3 |
| 20260507191529 | 23 | 313 | 8.0 | 20.9 | 0.00 | 3.53 | 1.91 | 55 | 1008.6 |
| 20260507190024 | 23 | 241 | 8.0 | 20.9 | 0.00 | 3.53 | 1.91 | 57 | 1008.8 |